Time;durP1;ratioP1;P1;durP2;ratioP2;P2;SDS_P1;SDS_P2;PMS_P1;PMS_P2;Temp;Humidity;BMP_temperature;BMP_pressure;BME280_temperature;BME280_humidity;BME280_pressure;Samples;Min_cycle;Max_cycle;Signal;HPM_P1;HPM_P2
2022/03/01 00:00:06;;;;;;;3.13;0.95;;;22.10;99.90;;;;;;5005482;28;20026;-65
2022/03/01 00:02:33;;;;;;;3.20;1.20;;;22.00;99.90;;;;;;5004166;28;20053;-70
2022/03/01 00:05:00;;;;;;;5.80;1.85;;;22.10;99.90;;;;;;5006845;28;20032;-65
2022/03/01 00:07:27;;;;;;;2.88;1.27;;;22.10;99.90;;;;;;5007449;28;20037;-66
2022/03/01 00:09:54;;;;;;;5.25;1.40;;;22.30;99.90;;;;;;5004468;28;20444;-66
2022/03/01 00:12:21;;;;;;;3.83;1.08;;;22.50;99.90;;;;;;5006780;28;20029;-66
2022/03/01 00:14:48;;;;;;;2.63;0.77;;;22.60;99.90;;;;;;5007239;28;20033;-69
2022/03/01 00:17:15;;;;;;;4.53;1.20;;;22.60;99.90;;;;;;5004618;28;20033;-65
2022/03/01 00:19:42;;;;;;;7.70;2.38;;;22.60;99.90;;;;;;5006701;28;20022;-66
2022/03/01 00:22:09;;;;;;;5.22;1.20;;;22.70;99.90;;;;;;5005958;28;20038;-69
2022/03/01 00:24:36;;;;;;;4.80;1.25;;;22.90;99.90;;;;;;5004706;28;20555;-69
2022/03/01 00:27:03;;;;;;;3.03;0.93;;;23.10;99.90;;;;;;5006373;28;20030;-68
2022/03/01 00:29:30;;;;;;;5.13;1.13;;;23.30;99.90;;;;;;5003422;28;20112;-66
2022/03/01 00:31:57;;;;;;;4.22;1.25;;;23.40;99.90;;;;;;5005067;28;20165;-68
2022/03/01 00:34:23;;;;;;;4.50;1.60;;;23.40;99.90;;;;;;5006468;28;20034;-68
2022/03/01 00:36:50;;;;;;;5.60;1.50;;;23.50;99.90;;;;;;5006588;28;20050;-66
2022/03/01 00:39:17;;;;;;;4.95;1.75;;;23.50;99.90;;;;;;5005732;28;20480;-64
2022/03/01 00:41:44;;;;;;;5.72;1.50;;;23.50;99.90;;;;;;5006389;28;20026;-67
2022/03/01 00:44:11;;;;;;;5.60;2.95;;;23.30;99.90;;;;;;5006701;28;20125;-67
2022/03/01 00:46:38;;;;;;;6.55;2.47;;;23.20;99.90;;;;;;5006272;28;20022;-63
2022/03/01 00:49:05;;;;;;;6.38;1.63;;;23.10;99.90;;;;;;5006167;28;20029;-67
2022/03/01 00:51:32;;;;;;;3.15;1.40;;;22.80;99.90;;;;;;5006772;28;20033;-69
2022/03/01 00:53:59;;;;;;;5.80;1.80;;;22.50;99.90;;;;;;5005109;28;20404;-68
2022/03/01 00:56:26;;;;;;;2.92;1.30;;;22.60;99.90;;;;;;5002512;28;20038;-63
2022/03/01 00:58:53;;;;;;;5.90;1.70;;;22.90;99.90;;;;;;4999947;28;20025;-71
2022/03/01 01:01:20;;;;;;;4.13;1.55;;;23.20;99.90;;;;;;5005340;28;20033;-71
2022/03/01 01:03:47;;;;;;;8.23;1.70;;;23.50;99.90;;;;;;5006103;28;20026;-62
2022/03/01 01:06:14;;;;;;;10.95;2.38;;;23.60;99.90;;;;;;5006258;28;20338;-63
2022/03/01 01:08:41;;;;;;;6.95;1.45;;;23.90;99.90;;;;;;5006001;28;20070;-65
2022/03/01 01:11:08;;;;;;;7.53;2.15;;;24.10;99.90;;;;;;5005658;28;20038;-62
2022/03/01 01:13:35;;;;;;;8.10;2.15;;;24.40;99.90;;;;;;5005273;28;20030;-69
2022/03/01 01:16:03;;;;;;;5.10;1.35;;;24.40;99.90;;;;;;5005547;28;20073;-62
2022/03/01 01:18:30;;;;;;;8.32;1.35;;;24.30;99.90;;;;;;5005634;28;20029;-69
2022/03/01 01:20:57;;;;;;;4.10;1.27;;;23.70;99.90;;;;;;5003022;28;20882;-62
2022/03/01 01:23:24;;;;;;;5.47;1.30;;;23.40;99.90;;;;;;5007902;28;20033;-69
2022/03/01 01:25:51;;;;;;;6.22;1.70;;;23.50;99.90;;;;;;5009389;28;20393;-69
2022/03/01 01:28:18;;;;;;;4.63;1.23;;;23.60;99.90;;;;;;5008008;28;20126;-65
2022/03/01 01:30:45;;;;;;;3.88;1.60;;;23.90;99.90;;;;;;5009131;28;20034;-63
2022/03/01 01:33:12;;;;;;;5.05;1.38;;;24.10;99.90;;;;;;5010159;28;20113;-65
2022/03/01 01:35:40;;;;;;;3.38;1.30;;;24.20;99.90;;;;;;5011745;28;20528;-65
2022/03/01 01:38:07;;;;;;;5.90;1.33;;;24.20;99.90;;;;;;5009386;28;20107;-62
2022/03/01 01:40:35;;;;;;;4.18;1.38;;;24.00;99.90;;;;;;5008722;28;20026;-66
2022/03/01 01:43:03;;;;;;;4.88;1.80;;;23.80;99.90;;;;;;5009361;28;20105;-70
2022/03/01 01:45:31;;;;;;;5.28;1.90;;;23.70;99.90;;;;;;5007555;28;20038;-65
2022/03/01 01:48:01;;;;;;;6.38;1.90;;;23.60;99.90;;;;;;5009526;28;20029;-63
2022/03/01 01:50:31;;;;;;;5.80;2.10;;;23.20;99.90;;;;;;5007878;28;20029;-70
2022/03/01 01:52:58;;;;;;;4.68;1.35;;;22.90;99.90;;;;;;5007205;28;20030;-65
2022/03/01 01:55:28;;;;;;;2.55;1.00;;;22.50;99.90;;;;;;5007794;28;20388;-74
2022/03/01 01:57:58;;;;;;;3.95;1.08;;;22.30;99.90;;;;;;5005999;28;20069;-74
2022/03/01 02:00:26;;;;;;;3.78;1.35;;;22.20;99.90;;;;;;5005107;28;20496;-75
2022/03/01 02:02:54;;;;;;;4.05;0.73;;;22.20;99.90;;;;;;5008952;28;20022;-70
2022/03/01 02:05:21;;;;;;;2.85;0.73;;;22.40;99.90;;;;;;5008335;28;20084;-64
2022/03/01 02:07:49;;;;;;;3.88;1.10;;;22.80;99.90;;;;;;5009140;28;20022;-64
2022/03/01 02:10:17;;;;;;;3.97;1.20;;;23.30;99.90;;;;;;5007497;28;20128;-73
2022/03/01 02:12:44;;;;;;;3.33;1.25;;;23.70;99.90;;;;;;5007586;28;20235;-61
2022/03/01 02:15:12;;;;;;;2.83;1.05;;;23.90;99.90;;;;;;5006221;28;20034;-67
2022/03/01 02:17:41;;;;;;;2.75;0.95;;;24.00;99.90;;;;;;5006334;28;20037;-62
2022/03/01 02:20:22;;;;;;;3.92;1.13;;;23.80;99.90;;;;;;5007920;28;20861;-62
2022/03/01 02:22:54;;;;;;;3.28;1.00;;;23.30;99.90;;;;;;5008611;28;20022;-69
2022/03/01 02:25:22;;;;;;;7.47;1.60;;;23.10;99.90;;;;;;5008084;28;20030;-66
2022/03/01 02:27:49;;;;;;;4.55;1.60;;;23.00;99.90;;;;;;5008149;28;20034;-68
2022/03/01 02:30:16;;;;;;;3.28;1.27;;;23.10;99.90;;;;;;5008092;28;20552;-68
2022/03/01 02:32:43;;;;;;;3.53;1.20;;;23.10;99.90;;;;;;5008069;28;20037;-64
2022/03/01 02:35:14;;;;;;;7.00;2.08;;;23.00;99.90;;;;;;5005033;28;20485;-74
2022/03/01 02:37:42;;;;;;;7.28;1.77;;;23.00;99.90;;;;;;5006575;28;20038;-63
2022/03/01 02:40:10;;;;;;;5.00;1.25;;;23.20;99.90;;;;;;5006076;28;20034;-69
2022/03/01 02:42:39;;;;;;;7.45;1.73;;;23.20;99.90;;;;;;5008405;28;20061;-68
2022/03/01 02:45:08;;;;;;;9.98;2.75;;;23.00;99.90;;;;;;5008915;28;20496;-70
2022/03/01 02:47:35;;;;;;;8.10;2.20;;;23.00;99.90;;;;;;5008397;28;20030;-64
2022/03/01 02:50:02;;;;;;;9.20;2.08;;;23.10;99.90;;;;;;5008080;28;20045;-64
2022/03/01 02:52:29;;;;;;;8.32;2.80;;;23.20;99.90;;;;;;5008065;28;20033;-69
2022/03/01 02:54:56;;;;;;;9.43;2.00;;;23.30;99.90;;;;;;5005634;28;20034;-65
2022/03/01 02:57:24;;;;;;;9.77;2.05;;;23.30;99.90;;;;;;5008361;28;20026;-63
2022/03/01 02:59:52;;;;;;;5.90;1.85;;;23.30;99.90;;;;;;5007260;28;20484;-69
2022/03/01 03:02:19;;;;;;;8.23;2.20;;;23.30;99.90;;;;;;5007672;28;20060;-63
2022/03/01 03:04:46;;;;;;;7.63;2.63;;;23.50;99.90;;;;;;5008314;28;20033;-71
2022/03/01 03:07:14;;;;;;;8.25;2.55;;;23.60;99.90;;;;;;5006758;28;20033;-68
2022/03/01 03:09:41;;;;;;;6.55;2.47;;;23.60;99.90;;;;;;5002036;28;20026;-70
2022/03/01 03:12:08;;;;;;;5.93;1.95;;;23.40;99.90;;;;;;5008492;28;20091;-69
2022/03/01 03:14:36;;;;;;;8.25;1.83;;;22.80;99.90;;;;;;5007515;28;20022;-73
2022/03/01 03:17:03;;;;;;;7.60;1.20;;;22.20;99.90;;;;;;4657298;28;9999651;-66
2022/03/01 03:19:32;;;;;;;5.65;1.27;;;21.90;99.90;;;;;;5005597;28;20366;-64
2022/03/01 03:22:00;;;;;;;4.07;1.40;;;21.80;99.90;;;;;;5006389;28;20396;-64
2022/03/01 03:24:27;;;;;;;7.28;1.27;;;21.70;99.90;;;;;;4999449;28;20115;-70
2022/03/01 03:26:54;;;;;;;7.35;1.50;;;21.60;99.90;;;;;;5004471;28;20058;-73
2022/03/01 03:29:21;;;;;;;7.57;1.20;;;21.50;99.90;;;;;;4997024;28;20076;-64
2022/03/01 03:31:48;;;;;;;8.70;1.67;;;21.50;99.90;;;;;;5004804;28;20424;-72
2022/03/01 03:34:15;;;;;;;6.93;1.60;;;21.60;99.90;;;;;;5001799;28;20551;-65
2022/03/01 03:36:43;;;;;;;9.90;1.45;;;21.70;99.90;;;;;;5001526;28;20081;-65
2022/03/01 03:39:12;;;;;;;5.10;2.05;;;21.90;99.90;;;;;;5003431;28;20029;-65
2022/03/01 03:41:39;;;;;;;6.53;1.40;;;21.90;99.90;;;;;;5004395;28;20030;-65
2022/03/01 03:44:07;;;;;;;7.13;1.67;;;22.00;99.90;;;;;;5005508;28;20044;-68
2022/03/01 03:46:34;;;;;;;12.93;1.70;;;22.20;99.90;;;;;;5003587;28;20033;-66
2022/03/01 03:49:03;;;;;;;9.93;2.50;;;22.30;99.90;;;;;;5004513;28;20030;-70
2022/03/01 03:51:30;;;;;;;10.77;2.42;;;22.40;99.90;;;;;;5001214;28;20030;-70
2022/03/01 03:53:58;;;;;;;5.15;2.00;;;22.50;99.90;;;;;;4999779;28;20504;-63
2022/03/01 03:56:25;;;;;;;7.70;1.65;;;22.60;99.90;;;;;;5004555;28;20058;-63
2022/03/01 03:58:55;;;;;;;7.22;2.17;;;22.70;99.90;;;;;;5003827;28;20018;-63
2022/03/01 04:01:22;;;;;;;8.35;2.05;;;22.80;99.90;;;;;;5004561;28;20049;-63
2022/03/01 04:03:50;;;;;;;5.43;1.73;;;22.80;99.90;;;;;;5003481;28;20553;-69
2022/03/01 04:06:17;;;;;;;7.88;2.00;;;22.80;99.90;;;;;;5004216;28;20485;-69
2022/03/01 04:08:44;;;;;;;9.50;2.05;;;22.90;99.90;;;;;;5003191;28;20065;-70
2022/03/01 04:11:11;;;;;;;9.60;2.17;;;23.00;99.90;;;;;;5004422;28;20029;-63
2022/03/01 04:13:38;;;;;;;8.00;3.63;;;23.20;99.90;;;;;;5005647;28;20515;-67
2022/03/01 04:16:05;;;;;;;7.78;2.22;;;23.50;99.90;;;;;;5002632;28;20872;-62
2022/03/01 04:18:32;;;;;;;6.13;1.58;;;23.80;99.90;;;;;;5003003;28;20543;-70
2022/03/01 04:20:59;;;;;;;7.00;2.08;;;24.20;99.90;;;;;;4999595;28;20096;-66
2022/03/01 04:23:27;;;;;;;7.90;2.22;;;24.60;99.90;;;;;;4998258;28;20064;-63
2022/03/01 04:25:55;;;;;;;9.88;1.88;;;24.90;99.90;;;;;;5002487;28;20037;-65
2022/03/01 04:28:22;;;;;;;9.55;1.77;;;24.80;99.90;;;;;;5002467;28;20046;-64
2022/03/01 04:30:49;;;;;;;7.07;1.88;;;24.70;99.90;;;;;;4999756;28;20114;-65
2022/03/01 04:33:16;;;;;;;5.47;1.77;;;24.20;99.90;;;;;;5003225;28;20080;-63
2022/03/01 04:35:43;;;;;;;5.18;1.50;;;23.80;99.90;;;;;;5002201;28;20030;-66
2022/03/01 04:38:10;;;;;;;9.45;1.20;;;22.70;99.90;;;;;;5003550;28;20070;-65
2022/03/01 04:40:37;;;;;;;4.57;1.17;;;22.10;99.90;;;;;;5002090;28;20485;-66
2022/03/01 04:43:04;;;;;;;5.63;1.10;;;21.80;99.90;;;;;;5003886;28;20252;-68
2022/03/01 04:45:32;;;;;;;5.55;1.23;;;21.60;99.90;;;;;;5002646;28;20022;-66
2022/03/01 04:47:59;;;;;;;10.27;1.27;;;21.60;99.90;;;;;;4995112;28;20030;-67
2022/03/01 04:50:27;;;;;;;7.40;1.65;;;21.60;99.90;;;;;;5001986;28;20042;-64
2022/03/01 04:52:54;;;;;;;9.80;1.90;;;21.70;99.90;;;;;;5003049;28;20041;-64
2022/03/01 04:55:21;;;;;;;7.03;1.42;;;21.70;99.90;;;;;;5002168;28;20044;-65
2022/03/01 04:57:48;;;;;;;6.32;1.63;;;21.80;99.90;;;;;;5001305;28;20022;-66
2022/03/01 05:00:15;;;;;;;5.78;1.75;;;21.80;99.90;;;;;;5005919;28;20045;-66
2022/03/01 05:02:44;;;;;;;6.10;1.63;;;21.80;99.90;;;;;;5001115;28;20037;-64
2022/03/01 05:05:12;;;;;;;7.13;2.20;;;21.90;99.90;;;;;;5000871;28;20497;-62
2022/03/01 05:07:41;;;;;;;8.02;2.33;;;21.90;99.90;;;;;;5001485;28;20438;-65
2022/03/01 05:10:09;;;;;;;7.25;1.92;;;21.80;99.90;;;;;;4997921;28;20042;-65
2022/03/01 05:13:03;;;;;;;8.82;2.38;;;21.90;99.90;;;;;;5005948;28;20080;-65
2022/03/01 05:15:30;;;;;;;10.57;2.05;;;22.00;99.90;;;;;;5001162;28;20038;-64
2022/03/01 05:17:59;;;;;;;9.38;2.28;;;22.10;99.90;;;;;;5002542;28;20018;-65
2022/03/01 05:20:27;;;;;;;6.90;2.25;;;22.10;99.90;;;;;;4997907;28;20034;-64
2022/03/01 05:22:55;;;;;;;8.65;2.38;;;22.10;99.90;;;;;;5003566;28;20112;-65
2022/03/01 05:25:23;;;;;;;10.63;2.40;;;22.20;99.90;;;;;;5005818;28;20068;-65
2022/03/01 05:27:52;;;;;;;9.60;2.97;;;22.30;99.90;;;;;;5004197;28;20055;-64
2022/03/01 05:30:20;;;;;;;8.85;2.78;;;22.40;99.90;;;;;;5006545;28;20034;-63
2022/03/01 05:32:51;;;;;;;11.52;2.15;;;22.50;99.90;;;;;;5005617;28;20033;-67
2022/03/01 05:35:22;;;;;;;8.75;2.65;;;22.50;99.90;;;;;;5005112;28;20029;-67
2022/03/01 05:37:52;;;;;;;10.95;2.63;;;22.40;99.90;;;;;;4995245;28;20046;-66
2022/03/01 05:40:21;;;;;;;6.05;1.73;;;22.30;99.90;;;;;;5004027;28;20117;-67
2022/03/01 05:42:48;;;;;;;22.63;16.27;;;22.10;99.90;;;;;;5006454;28;20361;-66
2022/03/01 05:45:15;;;;;;;8.43;2.40;;;22.10;99.90;;;;;;5006466;28;20497;-66
2022/03/01 05:47:43;;;;;;;12.02;6.28;;;22.20;99.90;;;;;;5007719;28;20033;-68
2022/03/01 05:50:12;;;;;;;10.75;2.83;;;22.30;99.90;;;;;;5005426;28;20034;-68
2022/03/01 05:52:39;;;;;;;11.25;2.78;;;22.50;99.90;;;;;;4997122;28;20034;-66
2022/03/01 05:55:08;;;;;;;14.85;3.33;;;22.90;99.90;;;;;;5002031;28;20199;-69
2022/03/01 05:57:35;;;;;;;11.57;2.97;;;23.10;99.90;;;;;;4999272;28;20109;-65
2022/03/01 06:00:06;;;;;;;9.60;2.30;;;23.20;99.90;;;;;;5003141;28;20405;-65
2022/03/01 06:02:34;;;;;;;13.82;3.20;;;23.20;99.90;;;;;;5004678;28;20113;-65
2022/03/01 06:05:01;;;;;;;9.77;3.17;;;23.10;99.90;;;;;;4992559;28;20383;-66
2022/03/01 06:07:28;;;;;;;12.90;3.10;;;23.00;99.90;;;;;;4998422;28;20033;-64
2022/03/01 06:09:54;;;;;;;11.52;2.83;;;23.00;99.90;;;;;;4998961;28;20037;-63
2022/03/01 06:12:21;;;;;;;15.30;3.08;;;23.00;99.90;;;;;;4994290;28;20053;-63
2022/03/01 06:14:48;;;;;;;9.07;2.65;;;23.00;99.90;;;;;;5001721;28;20030;-66
2022/03/01 06:17:15;;;;;;;12.07;2.40;;;23.00;99.90;;;;;;4999438;28;20068;-68
2022/03/01 06:19:42;;;;;;;7.20;2.22;;;23.00;99.90;;;;;;4998049;28;20056;-66
2022/03/01 06:22:09;;;;;;;8.90;2.22;;;22.90;99.90;;;;;;4995702;28;20030;-63
2022/03/01 06:24:41;;;;;;;9.02;2.75;;;23.00;99.90;;;;;;5000152;28;20022;-65
2022/03/01 06:27:09;;;;;;;7.78;2.25;;;22.90;99.90;;;;;;5000421;28;20030;-67
2022/03/01 06:29:37;;;;;;;14.43;7.50;;;22.90;99.90;;;;;;4999399;28;20087;-67
2022/03/01 06:32:05;;;;;;;11.20;2.60;;;23.00;99.90;;;;;;4998983;28;20100;-69
2022/03/01 06:34:33;;;;;;;13.82;6.53;;;22.90;99.90;;;;;;4999394;28;20524;-67
2022/03/01 06:37:01;;;;;;;10.95;2.67;;;22.90;99.90;;;;;;4999734;28;20042;-64
2022/03/01 06:39:28;;;;;;;9.52;2.58;;;23.00;99.90;;;;;;5000679;28;20113;-70
2022/03/01 06:41:55;;;;;;;11.25;2.83;;;22.90;99.90;;;;;;4998983;28;20060;-67
2022/03/01 06:44:22;;;;;;;13.75;3.10;;;23.00;99.90;;;;;;4999948;28;20058;-65
2022/03/01 06:46:49;;;;;;;10.80;2.42;;;23.00;99.90;;;;;;5000239;28;20026;-65
2022/03/01 06:49:16;;;;;;;9.23;2.58;;;23.10;99.90;;;;;;5001300;28;20021;-65
2022/03/01 06:51:43;;;;;;;12.07;2.83;;;23.30;99.90;;;;;;4994924;28;20317;-66
2022/03/01 06:54:10;;;;;;;12.88;4.68;;;23.40;99.90;;;;;;4997087;28;20030;-65
2022/03/01 06:56:36;;;;;;;9.73;2.65;;;23.40;99.90;;;;;;4998499;28;20077;-65
2022/03/01 06:59:03;;;;;;;9.60;2.83;;;23.50;99.90;;;;;;4999293;28;20022;-67
2022/03/01 07:01:30;;;;;;;7.75;2.58;;;23.70;99.90;;;;;;4997591;28;20444;-64
2022/03/01 07:03:57;;;;;;;10.98;2.30;;;23.50;99.90;;;;;;4998627;28;20105;-65
2022/03/01 07:06:24;;;;;;;10.20;2.20;;;23.30;99.90;;;;;;4992696;28;20056;-64
2022/03/01 07:08:51;;;;;;;12.30;2.75;;;23.00;99.90;;;;;;4998952;28;20030;-64
2022/03/01 07:11:19;;;;;;;7.55;3.30;;;22.50;99.90;;;;;;5013293;28;20421;-66
2022/03/01 07:13:46;;;;;;;7.63;2.47;;;21.90;99.90;;;;;;4998041;28;20435;-64
2022/03/01 07:16:13;;;;;;;10.73;3.45;;;21.50;99.90;;;;;;4994834;28;20137;-64
2022/03/01 07:18:42;;;;;;;9.65;2.78;;;21.20;99.90;;;;;;4999261;28;20692;-65
2022/03/01 07:21:09;;;;;;;9.90;2.42;;;21.00;99.90;;;;;;4996917;28;20492;-64
2022/03/01 07:23:37;;;;;;;11.80;4.18;;;20.80;99.90;;;;;;4998854;28;20564;-64
2022/03/01 07:26:04;;;;;;;8.05;3.17;;;20.70;99.90;;;;;;4997455;28;20041;-66
2022/03/01 07:28:31;;;;;;;7.10;2.45;;;20.60;99.90;;;;;;4998208;28;20657;-66
2022/03/01 07:30:58;;;;;;;14.32;2.95;;;20.60;99.90;;;;;;4997575;28;20716;-67
2022/03/01 07:33:25;;;;;;;13.25;2.78;;;20.50;99.90;;;;;;4998317;28;20276;-67
2022/03/01 07:35:52;;;;;;;8.52;2.88;;;20.50;99.90;;;;;;4997428;28;20029;-66
2022/03/01 07:38:19;;;;;;;12.70;2.65;;;20.50;99.90;;;;;;4997526;28;20373;-63
2022/03/01 07:40:46;;;;;;;11.45;2.28;;;20.50;99.90;;;;;;4997487;28;20108;-63
2022/03/01 07:43:13;;;;;;;12.32;3.13;;;20.50;99.90;;;;;;4997762;28;20377;-66
2022/03/01 07:45:40;;;;;;;10.50;2.50;;;20.50;99.90;;;;;;4996820;28;20684;-65
2022/03/01 07:48:07;;;;;;;12.82;3.00;;;20.50;99.90;;;;;;4997322;28;20136;-64
2022/03/01 07:50:34;;;;;;;10.68;2.50;;;20.50;99.90;;;;;;4997564;28;20789;-64
2022/03/01 07:53:01;;;;;;;10.77;2.88;;;20.50;99.90;;;;;;4997227;28;20038;-66
2022/03/01 07:55:29;;;;;;;14.13;3.13;;;20.50;99.90;;;;;;4997924;28;20087;-65
2022/03/01 07:57:57;;;;;;;9.95;2.80;;;20.60;99.90;;;;;;4997755;28;20026;-64
2022/03/01 08:00:24;;;;;;;17.02;3.50;;;20.60;99.90;;;;;;5010482;28;20033;-66
2022/03/01 08:02:52;;;;;;;14.15;3.80;;;20.60;99.90;;;;;;4994693;28;20026;-63
2022/03/01 08:05:19;;;;;;;11.38;3.38;;;20.70;99.90;;;;;;4995234;28;20081;-64
2022/03/01 08:07:46;;;;;;;9.40;4.47;;;20.70;99.90;;;;;;4997648;28;20041;-67
2022/03/01 08:10:13;;;;;;;8.50;3.78;;;20.60;99.90;;;;;;4997415;28;20032;-68
2022/03/01 08:12:40;;;;;;;15.88;8.38;;;20.60;99.90;;;;;;4997649;28;20440;-65
2022/03/01 08:15:09;;;;;;;19.15;10.82;;;20.60;99.90;;;;;;4998150;28;20068;-66
2022/03/01 08:17:36;;;;;;;16.48;10.50;;;20.60;99.90;;;;;;4996185;28;20497;-62
2022/03/01 08:20:04;;;;;;;12.30;7.38;;;20.60;99.90;;;;;;4998316;28;20392;-64
2022/03/01 08:22:30;;;;;;;14.75;7.38;;;20.60;99.90;;;;;;4998283;28;20029;-66
2022/03/01 08:24:57;;;;;;;16.45;8.23;;;20.50;99.90;;;;;;4996988;28;20129;-68
2022/03/01 08:27:24;;;;;;;12.10;8.15;;;20.60;99.90;;;;;;4995751;28;20383;-70
2022/03/01 08:29:52;;;;;;;16.90;7.50;;;20.50;99.90;;;;;;4997610;28;20116;-69
2022/03/01 08:32:19;;;;;;;19.17;7.60;;;20.60;99.90;;;;;;5000398;28;20058;-65
2022/03/01 08:34:46;;;;;;;14.40;6.90;;;20.70;99.90;;;;;;5002384;28;21049;-67
2022/03/01 08:37:13;;;;;;;15.63;5.05;;;20.80;99.90;;;;;;5000499;28;20042;-68
2022/03/01 08:39:40;;;;;;;14.95;4.13;;;20.80;99.90;;;;;;5000887;28;20033;-65
2022/03/01 08:42:07;;;;;;;11.82;2.67;;;20.80;99.90;;;;;;5002172;28;20026;-68
2022/03/01 08:44:34;;;;;;;8.90;3.35;;;20.80;99.90;;;;;;5000639;28;20034;-68
2022/03/01 08:47:01;;;;;;;15.20;3.38;;;20.80;99.90;;;;;;4998750;28;20026;-66
2022/03/01 08:49:28;;;;;;;11.90;3.90;;;20.80;99.90;;;;;;4997174;28;20297;-66
2022/03/01 08:51:55;;;;;;;12.55;3.20;;;20.80;99.90;;;;;;4995175;28;20029;-66
2022/03/01 08:54:23;;;;;;;12.40;4.22;;;20.80;99.90;;;;;;4997222;28;20040;-70
2022/03/01 08:56:50;;;;;;;8.70;3.15;;;20.70;99.90;;;;;;4996990;28;20030;-70
2022/03/01 08:59:18;;;;;;;10.65;3.03;;;20.70;99.90;;;;;;5000062;28;20490;-66
2022/03/01 09:01:45;;;;;;;10.13;2.45;;;20.70;99.90;;;;;;5001626;28;20540;-66
2022/03/01 09:04:12;;;;;;;8.40;2.83;;;20.60;99.90;;;;;;4999353;28;20041;-67
2022/03/01 09:06:39;;;;;;;5.13;1.88;;;20.50;99.90;;;;;;4997748;28;20029;-70
2022/03/01 09:09:06;;;;;;;6.53;2.30;;;20.60;99.90;;;;;;4999956;28;20583;-70
2022/03/01 09:11:32;;;;;;;8.43;2.58;;;20.60;99.90;;;;;;4999761;28;20038;-70
2022/03/01 09:13:59;;;;;;;10.13;2.72;;;20.60;99.90;;;;;;4998557;28;20061;-69
2022/03/01 09:16:26;;;;;;;8.05;2.67;;;20.60;99.90;;;;;;4994929;28;20092;-66
2022/03/01 09:18:53;;;;;;;3.97;1.90;;;20.70;99.90;;;;;;4998061;28;20022;-72
2022/03/01 09:21:20;;;;;;;12.25;2.42;;;20.80;99.90;;;;;;4998133;28;20025;-70
2022/03/01 09:23:47;;;;;;;8.48;3.17;;;20.80;99.90;;;;;;4998040;28;20029;-68
2022/03/01 09:26:15;;;;;;;14.85;7.50;;;20.80;99.90;;;;;;4998478;28;20554;-65
2022/03/01 09:28:43;;;;;;;13.48;6.00;;;20.80;99.90;;;;;;4998210;28;20026;-67
2022/03/01 09:31:10;;;;;;;10.55;3.70;;;20.80;99.90;;;;;;5000527;28;20026;-66
2022/03/01 09:33:42;;;;;;;10.13;3.20;;;20.80;99.90;;;;;;4999752;28;20034;-64
2022/03/01 09:36:13;;;;;;;8.77;2.22;;;20.70;99.90;;;;;;4999852;28;20391;-65
2022/03/01 09:38:42;;;;;;;6.80;2.33;;;20.60;99.90;;;;;;5003870;28;20034;-69
2022/03/01 09:41:11;;;;;;;8.73;1.65;;;20.50;99.90;;;;;;5001175;28;20547;-64
2022/03/01 09:43:39;;;;;;;7.40;1.63;;;20.40;99.90;;;;;;5002429;28;20029;-66
2022/03/01 09:46:07;;;;;;;6.80;1.90;;;20.40;99.90;;;;;;5003717;28;20053;-64
2022/03/01 09:48:36;;;;;;;7.15;2.00;;;20.40;99.90;;;;;;4999506;28;20046;-66
2022/03/01 09:51:05;;;;;;;8.85;2.45;;;20.30;99.90;;;;;;5007386;28;20357;-65
2022/03/01 09:53:32;;;;;;;9.93;2.65;;;20.30;99.90;;;;;;5005782;28;20472;-68
2022/03/01 09:56:07;;;;;;;10.80;2.67;;;20.30;99.90;;;;;;5006009;28;20038;-67
2022/03/01 09:58:36;;;;;;;7.00;2.35;;;20.30;99.90;;;;;;5006883;28;20172;-66
2022/03/01 10:01:04;;;;;;;7.10;2.03;;;20.30;99.90;;;;;;5006021;28;20066;-65
2022/03/01 10:03:35;;;;;;;8.88;2.50;;;20.30;99.90;;;;;;5000253;28;20022;-67
2022/03/01 10:06:11;;;;;;;5.25;2.50;;;20.40;99.90;;;;;;5005729;28;20038;-66
2022/03/01 10:08:38;;;;;;;8.55;3.47;;;20.30;99.90;;;;;;5002205;28;20026;-65
2022/03/01 10:11:05;;;;;;;9.88;3.92;;;20.30;99.90;;;;;;4999336;28;20144;-64
2022/03/01 10:13:34;;;;;;;10.27;3.20;;;20.30;99.90;;;;;;5005880;28;20025;-63
2022/03/01 10:16:12;;;;;;;8.45;3.10;;;20.30;99.90;;;;;;5003425;28;20045;-67
2022/03/01 10:18:41;;;;;;;8.40;3.00;;;20.30;99.90;;;;;;4998666;28;20022;-64
2022/03/01 10:21:11;;;;;;;12.10;2.88;;;20.40;99.90;;;;;;5004344;28;20757;-65
2022/03/01 10:23:41;;;;;;;9.63;2.78;;;20.40;99.90;;;;;;5005436;28;20108;-67
2022/03/01 10:26:27;;;;;;;10.30;3.22;;;20.40;99.90;;;;;;5004983;28;20033;-65
2022/03/01 10:28:56;;;;;;;10.65;2.92;;;20.30;99.90;;;;;;5003392;28;20032;-65
2022/03/01 10:31:27;;;;;;;13.35;3.22;;;20.40;99.90;;;;;;5005817;28;20361;-65
2022/03/01 10:33:55;;;;;;;11.50;2.83;;;20.40;99.90;;;;;;5004969;28;20705;-64
2022/03/01 10:36:32;;;;;;;15.82;3.35;;;20.30;99.90;;;;;;5009710;23;20089;-66
2022/03/01 10:39:09;;;;;;;11.85;2.75;;;20.40;99.90;;;;;;5000993;28;20040;-65
2022/03/01 10:41:42;;;;;;;10.25;3.25;;;20.30;99.90;;;;;;5000730;28;20037;-64
2022/03/01 10:44:15;;;;;;;7.07;3.53;;;20.30;99.90;;;;;;5000822;28;20505;-64
2022/03/01 10:46:46;;;;;;;12.25;2.55;;;20.30;99.90;;;;;;5002679;28;20038;-66
2022/03/01 10:49:16;;;;;;;10.93;2.42;;;20.30;99.90;;;;;;5000462;28;20387;-64
2022/03/01 10:51:52;;;;;;;14.70;2.65;;;20.30;99.90;;;;;;4997935;28;20030;-65
2022/03/01 10:54:31;;;;;;;12.73;2.90;;;20.30;99.90;;;;;;5000421;28;20496;-64
2022/03/01 10:57:00;;;;;;;9.05;3.15;;;20.20;99.90;;;;;;5001385;28;20034;-62
2022/03/01 10:59:30;;;;;;;15.93;6.57;;;20.30;99.90;;;;;;4997389;28;20558;-64
2022/03/01 11:01:57;;;;;;;12.27;5.93;;;20.30;99.90;;;;;;5001606;28;20105;-63
2022/03/01 11:04:26;;;;;;;14.90;7.25;;;20.30;99.90;;;;;;5005499;28;20022;-63
2022/03/01 11:06:58;;;;;;;10.98;3.70;;;20.30;99.90;;;;;;5005568;28;20088;-63
2022/03/01 11:09:29;;;;;;;15.57;5.20;;;20.30;99.90;;;;;;5002954;28;20388;-65
2022/03/01 11:11:58;;;;;;;13.90;8.15;;;20.30;99.90;;;;;;5002031;28;20446;-66
2022/03/01 11:14:36;;;;;;;15.25;9.50;;;20.20;99.90;;;;;;5000826;28;20034;-63
2022/03/01 11:17:21;;;;;;;11.70;4.18;;;20.10;99.90;;;;;;4998263;28;20030;-63
2022/03/01 11:19:54;;;;;;;10.05;4.45;;;20.20;99.90;;;;;;5018378;28;20033;-66
2022/03/01 11:22:26;;;;;;;10.00;3.15;;;20.30;99.90;;;;;;4998851;28;20091;-63
2022/03/01 11:24:53;;;;;;;10.75;3.03;;;20.30;99.90;;;;;;4998434;28;20037;-65
2022/03/01 11:27:24;;;;;;;7.75;2.92;;;20.20;99.90;;;;;;5001520;28;20036;-65
2022/03/01 11:29:51;;;;;;;8.25;2.78;;;20.20;99.90;;;;;;5007180;28;20018;-66
2022/03/01 11:32:24;;;;;;;10.82;2.90;;;20.20;99.90;;;;;;4999536;28;20153;-65
2022/03/01 11:35:02;;;;;;;9.95;2.67;;;20.10;99.90;;;;;;5001665;28;20093;-63
2022/03/01 11:37:29;;;;;;;10.73;2.63;;;20.10;99.90;;;;;;5002928;28;20507;-67
2022/03/01 11:39:59;;;;;;;8.52;3.00;;;20.10;99.90;;;;;;5001341;28;20026;-66
2022/03/01 11:42:31;;;;;;;10.65;2.58;;;20.10;99.90;;;;;;4998433;28;20018;-64
2022/03/01 11:45:07;;;;;;;13.05;2.90;;;20.10;99.90;;;;;;5001275;28;20992;-66
2022/03/01 11:47:35;;;;;;;12.10;2.50;;;20.10;99.90;;;;;;4997537;28;20030;-63
2022/03/01 11:50:16;;;;;;;9.32;2.60;;;20.00;99.90;;;;;;5000083;28;20143;-66
2022/03/01 11:52:57;;;;;;;14.05;2.67;;;20.10;99.90;;;;;;4995016;28;20033;-66
2022/03/01 11:55:32;;;;;;;11.77;2.60;;;20.10;99.90;;;;;;4998489;28;20041;-63
2022/03/01 11:57:59;;;;;;;9.25;2.63;;;20.00;99.90;;;;;;4999160;28;20043;-65
2022/03/01 12:00:29;;;;;;;15.77;3.35;;;20.00;99.90;;;;;;4999847;28;20513;-65
2022/03/01 12:02:59;;;;;;;7.53;2.50;;;20.10;99.90;;;;;;5000025;28;20233;-63
2022/03/01 12:05:27;;;;;;;10.18;2.28;;;20.10;99.90;;;;;;5001933;28;20030;-64
2022/03/01 12:07:55;;;;;;;9.43;2.67;;;20.10;99.90;;;;;;5003398;28;20064;-64
2022/03/01 12:10:25;;;;;;;15.05;2.42;;;20.20;99.90;;;;;;5002450;28;20408;-64
2022/03/01 12:12:56;;;;;;;8.20;2.20;;;20.10;99.90;;;;;;4997857;28;20082;-66
2022/03/01 12:15:41;;;;;;;11.75;2.42;;;20.10;99.90;;;;;;5002444;28;20080;-65
2022/03/01 12:18:14;;;;;;;7.38;2.13;;;20.10;99.90;;;;;;4998596;28;20072;-64
2022/03/01 12:20:44;;;;;;;10.88;2.85;;;20.00;99.90;;;;;;4998686;28;20030;-64
2022/03/01 12:23:24;;;;;;;8.98;3.25;;;20.10;99.90;;;;;;5001803;28;20026;-65
2022/03/01 12:25:51;;;;;;;12.90;3.67;;;20.00;99.90;;;;;;5002431;28;20033;-65
2022/03/01 12:28:21;;;;;;;11.63;2.85;;;20.00;99.90;;;;;;5001566;28;20062;-64
2022/03/01 12:30:48;;;;;;;14.98;3.55;;;20.00;99.90;;;;;;4999624;28;20112;-65
2022/03/01 12:33:18;;;;;;;13.27;3.42;;;20.00;99.90;;;;;;5003103;28;20472;-64
2022/03/01 12:36:02;;;;;;;9.95;2.33;;;20.00;99.90;;;;;;5001649;28;20038;-63
2022/03/01 12:38:34;;;;;;;10.90;2.40;;;20.10;99.90;;;;;;5002596;28;20030;-65
2022/03/01 12:41:09;;;;;;;8.80;2.47;;;20.10;99.90;;;;;;5001879;28;20022;-66
2022/03/01 12:43:36;;;;;;;8.80;3.03;;;20.10;99.90;;;;;;4999134;28;20040;-66
2022/03/01 12:46:03;;;;;;;11.35;2.80;;;20.10;99.90;;;;;;5003069;28;20485;-64
2022/03/01 12:48:30;;;;;;;9.93;3.35;;;20.00;99.90;;;;;;5001626;28;20038;-67